METAR Data
IDs: Format: Raw Decoded Include TAF

Data at: 1611 UTC 03 Dec 2021

LFQB 031600Z AUTO 16011KT 9999 -DZ BKN007 OVC011 03/02 Q1010